• Join FlightAware (Why Join?)
  • Login
  • US Flag 
11:43AM EST


 

Airport Tracker/Info


-or-


 

Live Flight TrackerFlight Track Log ✈ N53PB ✈ 29-Apr-2013 ✈ KBTL - 35D

Flight Track Log - Related Links

Times and Time Zones

All times are in EDT time to prevent confusion due to time zone crossing. See the N53PB flight status page for this flight to view local times or setup timezone preferences in your user account.

Time Position Orientation Groundspeed Altitude Reporting Facility
EDT Latitude Longitude Course Direction KTS MPH feet Rate Location/Type
03:32PM 42.2856 -85.3139 282° West 99 114 2,600  Level Chicago Center
03:33PM 42.3094 -85.3397 321° Northwest 105 121 3,400 600 Climbing Chicago Center
03:34PM 42.3269 -85.3744 304° West 109 125 3,900 240 Climbing Chicago Center
03:35PM 42.3617 -85.3556 22° Northeast 129 148 3,900  Level Chicago Center
03:36PM 42.4559 -85.3879 282° West  Level FlightAware Approximate
03:36PM 42.3986 -85.3383 19° North 138 159 3,900  Level Chicago Center
03:37PM 42.4626 -85.4312 282° West  Level FlightAware Approximate
03:37PM 42.4358 -85.3192 21° North 142 163 3,900  Level Chicago Center
03:38PM 42.4750 -85.3264 352° North 152 175 3,900  Level Chicago Center
03:39PM 42.4869 -85.3706 290° West 132 152 3,900  Level Chicago Center
03:40PM 42.4964 -85.4153 286° West 124 143 3,900  Level Chicago Center
03:41PM 42.5064 -85.4631 286° West 128 147 3,900  Level Chicago Center
03:42PM 42.5158 -85.5111 285° West 132 152 3,900  Level Chicago Center
03:43PM 42.5256 -85.5589 285° West 132 152 4,000  Climbing Chicago Center
03:44PM 42.5361 -85.6181 284° West 135 155 4,000  Level Chicago Center
03:45PM 42.5483 -85.6614 291° West 129 148 4,000  Level Chicago Center
03:46PM 42.5600 -85.7033 291° West 124 143 4,000 -180 Level Chicago Center
03:47PM 42.5722 -85.6703 63° Northeast 130 150 3,700 -540 Descending Chicago Center
03:48PM 42.5839 -85.6336 67° East 133 153 3,000 -360 Descending Chicago Center
03:49PM 42.5886 -85.6025 78° East 119 137 3,000 -300 Level Chicago Center
03:50PM 42.5689 -85.6425 236° Southwest 114 131 2,400 -300 Descending Chicago Center
03:51PM 42.5581 -85.6783 248° West 108 124 2,500 -120 Climbing Chicago Center
03:52PM 42.5506 -85.7117 253° West 98 113 2,200 -480 Descending Chicago Center
03:53PM 42.5411 -85.7475 250° West 98 113 1,600 -360 Descending Chicago Center
03:54PM 42.5303 -85.7808 246° West 98 113 1,500 -240 Descending Chicago Center
03:55PM 42.5275 -85.8206 265° West 98 113 1,200 120 Descending Chicago Center
03:56PM 42.5244 -85.8469 261° West 91 105 1,800 780 Climbing Chicago Center
03:57PM 42.5097 -85.8842 242° Southwest 93 107 2,900 540 Climbing Chicago Center
03:58PM 42.5086 -85.9208 268° West 111 128 3,000  Climbing Chicago Center
04:00PM 42.5233 -85.8947 53° Northeast 127 146 3,000  Level Chicago Center
04:01PM 42.5222 -85.8442 92° East 135 155 3,000  Level Chicago Center
04:02PM 42.5331 -85.7939 74° East 137 158 3,000  Level Chicago Center
04:03PM 42.5469 -85.7331 73° East 140 161 3,000  Level Chicago Center
04:04PM 42.5589 -85.6850 71° East 139 160 3,000  Level Chicago Center
04:05PM 42.5783 -85.6533 50° Northeast 129 148 3,100  Climbing Chicago Center
04:06PM 42.5700 -85.6819 248° West 126 145 3,000 -60 Descending Chicago Center
04:07PM 42.5522 -85.7136 233° Southwest 113 130 3,000  Level Chicago Center
04:08PM 42.5769 -85.7089 North 125 144 3,000  Level Chicago Center
04:09PM 42.5828 -85.6564 81° East 118 136 3,000  Level Chicago Center
04:10PM 42.5628 -85.6714 209° Southwest 123 142 3,000  Level Chicago Center
04:11PM 42.5572 -85.7122 260° West 120 138 3,000  Level Chicago Center
04:12PM 42.5836 -85.6969 23° Northeast 130 150 3,000  Level Chicago Center
04:13PM 42.5881 -85.6506 83° East 125 144 3,000  Level Chicago Center